Toms River, New Jersey
Current Conditions -  °F | °C
As of 11:35 AM on Friday 19 Dec 2014 (Local Time) from KMJX Reporting Station
Overcast Overcast  
Wind Chill: 30°   Ceiling: 3200
Heat Index: 37°   Visibility: 10mi
Dew Point: 23°   Wind: 12mph
Humidity: 56%   Direction: 340°NNW
Pressure: 30.06"   Gusts: 20mph
Location:  39.95°N, 74.19°W
Report Text: KMJX 191635Z AUTO 34010G17KT 10SM OVC032 03/M05 A3006 RMK AO1
Loading
Personal Weather Stations






























Interactive Weather Map New forecast layout! Learn more

10-Day Weather Forecast

Advertisements
Track Severe Weather on mobile